Time,TemperatureF,DewpointF,PressureIn,WindDirection,WindDirectionDegrees,WindSpeedMPH,WindSpeedGustMPH,Humidity,HourlyPrecipIn,Conditions,Clouds,dailyrainin,SoftwareType,DateUTC
2013-06-24 11:47:00,65.3,63.0,29.97,SW,225,0.0,0.0,92,0.00,,,0.00,WUHU216HW,2013-06-24 16:47:00,
2013-06-24 12:02:00,81.2,69.1,29.89,SSW,203,1.8,3.2,67,0.63,,,0.63,WUHU216HW,2013-06-24 17:02:00,
2013-06-24 21:12:00,81.2,69.1,29.89,SSW,203,1.8,2.5,67,0.00,,,0.63,WUHU216HW,2013-06-25 02:12:00,
2013-06-24 21:36:00,72.5,65.7,29.83,SW,225,0.0,0.0,79,0.00,,,0.63,WUHU216HW,2013-06-25 02:36:00,
2013-06-24 21:41:00,72.4,65.5,29.83,SW,225,0.4,1.1,79,0.02,,,0.65,WUHU216HW,2013-06-25 02:41:00,
2013-06-24 21:46:00,72.2,65.4,29.84,SW,225,0.4,1.7,79,0.02,,,0.65,WUHU216HW,2013-06-25 02:46:00,
2013-06-24 21:51:00,72.2,65.4,29.84,SSW,203,0.2,1.7,79,0.02,,,0.65,WUHU216HW,2013-06-25 02:51:00,
2013-06-24 21:56:00,72.0,65.2,29.84,South,180,0.0,0.6,79,0.02,,,0.65,WUHU216HW,2013-06-25 02:56:00,
2013-06-24 22:01:00,71.8,65.3,29.84,SE,135,0.6,1.4,80,0.02,,,0.65,WUHU216HW,2013-06-25 03:01:00,
2013-06-24 22:06:00,71.6,65.2,29.84,SE,135,0.7,1.7,80,0.02,,,0.65,WUHU216HW,2013-06-25 03:06:00,
2013-06-24 22:11:00,71.6,65.2,29.84,ESE,113,0.5,1.7,80,0.02,,,0.65,WUHU216HW,2013-06-25 03:11:00,
2013-06-24 22:17:00,71.5,65.0,29.84,East,90,0.8,1.7,80,0.00,,,0.65,WUHU216HW,2013-06-25 03:17:00,
2013-06-24 22:22:00,71.1,64.6,29.84,SE,141,0.5,1.4,80,0.00,,,0.65,WUHU216HW,2013-06-25 03:22:00,
2013-06-24 22:27:00,70.9,64.4,29.84,SE,135,0.7,1.4,80,0.00,,,0.65,WUHU216HW,2013-06-25 03:27:00,
2013-06-24 22:33:00,70.9,64.8,29.84,SE,135,0.2,1.4,81,0.00,,,0.65,WUHU216HW,2013-06-25 03:33:00,
2013-06-24 22:38:00,70.7,64.6,29.84,SE,135,1.0,1.7,81,0.00,,,0.65,WUHU216HW,2013-06-25 03:38:00,
2013-06-24 22:43:00,70.7,64.6,29.84,ESE,113,2.0,4.0,81,0.00,,,0.65,WUHU216HW,2013-06-25 03:43:00,
2013-06-24 22:48:00,70.6,64.5,29.85,SE,135,0.4,4.0,81,0.00,,,0.65,WUHU216HW,2013-06-25 03:48:00,
2013-06-24 22:53:00,70.4,64.6,29.85,SE,135,0.0,2.1,82,0.00,,,0.65,WUHU216HW,2013-06-25 03:53:00,
2013-06-24 22:58:00,70.2,64.5,29.85,SE,135,0.0,2.1,82,0.00,,,0.65,WUHU216HW,2013-06-25 03:58:00,
2013-06-24 23:01:00,70.2,64.5,29.85,SSE,158,0.0,1.4,82,0.00,,,0.65,WUHU216HW,2013-06-25 04:01:00,
2013-06-24 23:06:00,70.0,64.3,29.86,SSE,158,0.0,0.0,82,0.00,,,0.65,WUHU216HW,2013-06-25 04:06:00,
2013-06-24 23:11:00,70.0,64.3,29.86,SE,135,0.2,0.3,82,0.00,,,0.65,WUHU216HW,2013-06-25 04:11:00,
2013-06-24 23:16:00,69.8,64.1,29.86,SE,135,0.0,0.3,82,0.00,,,0.65,WUHU216HW,2013-06-25 04:16:00,
2013-06-24 23:21:00,69.7,63.9,29.86,SE,135,0.0,0.0,82,0.00,,,0.65,WUHU216HW,2013-06-25 04:21:00,
2013-06-24 23:26:00,69.5,64.1,29.86,SE,135,0.0,0.0,83,0.00,,,0.65,WUHU216HW,2013-06-25 04:26:00,
2013-06-24 23:31:00,69.3,63.9,29.86,SE,135,0.0,0.0,83,0.00,,,0.65,WUHU216HW,2013-06-25 04:31:00,
2013-06-24 23:36:00,69.1,63.7,29.86,SE,135,0.0,0.0,83,0.00,,,0.65,WUHU216HW,2013-06-25 04:36:00,
2013-06-24 23:41:00,69.1,63.7,29.86,SE,135,0.0,0.0,83,0.00,,,0.65,WUHU216HW,2013-06-25 04:41:00,
2013-06-24 23:46:00,68.9,63.9,29.86,SE,135,0.0,0.0,84,0.00,,,0.65,WUHU216HW,2013-06-25 04:46:00,
2013-06-24 23:51:00,68.8,63.7,29.86,SE,135,0.0,0.0,84,0.00,,,0.65,WUHU216HW,2013-06-25 04:51:00,
2013-06-24 23:56:00,68.6,63.5,29.86,SE,135,0.4,0.6,84,0.00,,,0.65,WUHU216HW,2013-06-25 04:56:00,